Time;durP1;ratioP1;P1;durP2;ratioP2;P2;SDS_P1;SDS_P2;PMS_P1;PMS_P2;Temp;Humidity;BMP_temperature;BMP_pressure;BME280_temperature;BME280_humidity;BME280_pressure;Samples;Min_cycle;Max_cycle;Signal;HPM_P1;HPM_P2
2021/10/13 00:01:34;;;;;;;23.62;13.53;;;;;;;8.98;66.63;99154.06;1660598;84;21066;-57
2021/10/13 00:04:01;;;;;;;19.82;13.38;;;;;;;8.96;66.65;99139.37;1661650;84;21097;-57
2021/10/13 00:06:27;;;;;;;22.03;14.27;;;;;;;8.93;66.73;99140.86;1661337;84;21140;-57
2021/10/13 00:08:53;;;;;;;21.37;12.58;;;;;;;8.92;66.88;99143.66;1669583;83;21664;-57
2021/10/13 00:11:21;;;;;;;21.43;12.93;;;;;;;8.90;66.96;99149.09;1690745;82;21187;-57
2021/10/13 00:13:48;;;;;;;21.33;11.57;;;;;;;8.89;67.09;99140.64;1674072;83;21054;-57
2021/10/13 00:16:14;;;;;;;17.10;10.45;;;;;;;8.90;67.20;99131.65;1691392;82;21068;-56
2021/10/13 00:18:41;;;;;;;20.95;12.07;;;;;;;8.91;67.34;99137.42;1690119;83;21153;-58
2021/10/13 00:21:07;;;;;;;16.03;11.20;;;;;;;8.92;67.38;99133.79;1688396;83;21076;-57
2021/10/13 00:23:34;;;;;;;22.53;12.90;;;;;;;8.92;67.45;99125.73;1691317;82;21132;-58
2021/10/13 00:26:00;;;;;;;19.35;13.32;;;;;;;8.92;67.47;99132.45;1676058;83;21101;-57
2021/10/13 00:28:27;;;;;;;21.30;13.48;;;;;;;8.92;67.54;99123.05;1691589;83;21131;-57
2021/10/13 00:30:53;;;;;;;21.48;13.40;;;;;;;8.91;67.63;99120.44;1679407;83;22416;-57
2021/10/13 00:33:20;;;;;;;19.25;12.55;;;;;;;8.88;67.69;99120.59;1655003;84;21359;-57
2021/10/13 00:35:46;;;;;;;19.90;13.83;;;;;;;8.84;67.76;99117.21;1658054;84;21101;-57
2021/10/13 00:38:12;;;;;;;17.07;12.70;;;;;;;8.82;67.84;99123.59;1654475;84;21086;-58
2021/10/13 00:40:40;;;;;;;20.15;12.10;;;;;;;8.76;67.94;99131.50;1692041;82;21072;-57
2021/10/13 00:43:07;;;;;;;18.27;10.60;;;;;;;8.72;68.07;99131.23;1691252;82;21138;-57
2021/10/13 00:45:33;;;;;;;14.23;10.25;;;;;;;8.68;68.19;99130.52;1693187;82;21088;-57
2021/10/13 00:48:00;;;;;;;16.73;9.58;;;;;;;8.68;68.32;99130.98;1685198;82;21092;-57
2021/10/13 00:50:27;;;;;;;14.55;10.82;;;;;;;8.69;68.46;99130.04;1688936;83;21120;-56
2021/10/13 00:52:53;;;;;;;23.05;12.63;;;;;;;8.71;68.55;99128.16;1691950;82;21167;-56
2021/10/13 00:55:20;;;;;;;16.57;12.28;;;;;;;8.75;68.60;99130.23;1697372;82;23423;-57
2021/10/13 00:57:51;;;;;;;17.85;12.68;;;;;;;8.77;68.60;99138.57;1634550;86;21166;-57
2021/10/13 01:00:19;;;;;;;18.40;13.63;;;;;;;8.80;68.55;99142.45;1695796;83;20911;-57
2021/10/13 01:03:03;;;;;;;21.52;13.83;;;;;;;8.80;68.58;99142.45;1696089;82;20962;-57
2021/10/13 01:05:50;;;;;;;20.70;13.93;;;;;;;8.81;68.64;99144.20;1694082;83;21444;-57
2021/10/13 01:08:34;;;;;;;25.43;15.07;;;;;;;8.81;68.71;99135.27;1689606;83;21149;-57
2021/10/13 01:11:13;;;;;;;23.23;14.10;;;;;;;8.80;68.87;99134.88;1692061;82;21076;-57
2021/10/13 01:13:53;;;;;;;22.37;14.73;;;;;;;8.79;68.88;99134.47;1694437;83;20986;-57
2021/10/13 01:16:35;;;;;;;21.30;12.50;;;;;;;8.76;68.92;99135.52;1689297;83;21050;-57
2021/10/13 01:19:06;;;;;;;19.10;12.43;;;;;;;8.75;68.95;99131.56;1694363;82;20962;-57
2021/10/13 01:22:02;;;;;;;19.42;12.07;;;;;;;8.75;68.99;99126.20;1693641;83;21109;-57
2021/10/13 01:25:04;;;;;;;16.83;11.13;;;;;;;8.73;69.06;99123.12;1695237;83;21033;-57
2021/10/13 01:27:55;;;;;;;15.45;10.60;;;;;;;8.71;69.08;99125.47;1695919;83;20909;-57
2021/10/13 01:30:22;;;;;;;22.20;14.13;;;;;;;8.68;69.11;99128.30;1692588;82;21487;-57
2021/10/13 01:33:06;;;;;;;16.80;12.55;;;;;;;8.63;69.21;99124.52;1665758;83;21041;-57
2021/10/13 01:35:32;;;;;;;24.25;15.25;;;;;;;8.62;69.26;99131.30;1698235;82;21010;-57
2021/10/13 01:38:02;;;;;;;20.57;14.80;;;;;;;8.57;69.36;99122.63;1700536;82;21018;-57
2021/10/13 01:40:30;;;;;;;27.87;15.13;;;;;;;8.53;69.49;99123.70;1682912;83;20895;-57
2021/10/13 01:43:01;;;;;;;20.92;15.32;;;;;;;8.49;69.60;99125.69;1696380;82;20953;-55
2021/10/13 01:45:27;;;;;;;23.85;15.88;;;;;;;8.44;69.67;99122.82;1695054;82;21531;-57
2021/10/13 01:47:55;;;;;;;25.23;14.95;;;;;;;8.39;69.80;99129.77;1694145;83;20930;-55
2021/10/13 01:50:23;;;;;;;22.80;14.67;;;;;;;8.35;69.93;99129.03;1693161;82;21020;-56
2021/10/13 01:52:49;;;;;;;19.50;12.37;;;;;;;8.32;70.05;99126.53;1688955;82;21108;-55
2021/10/13 01:55:18;;;;;;;20.97;11.38;;;;;;;8.32;70.15;99121.63;1691132;82;21184;-56
2021/10/13 01:57:46;;;;;;;27.57;12.93;;;;;;;8.33;70.27;99130.08;1692618;82;21045;-57
2021/10/13 02:00:14;;;;;;;21.40;14.07;;;;;;;8.33;70.36;99128.27;1690742;82;21156;-58
2021/10/13 02:02:40;;;;;;;21.90;14.37;;;;;;;8.32;70.44;99130.55;1690351;82;21617;-55
2021/10/13 02:05:08;;;;;;;19.73;14.07;;;;;;;8.32;70.51;99138.59;1690538;82;21132;-56
2021/10/13 02:07:34;;;;;;;24.27;16.40;;;;;;;8.31;70.51;99135.98;1691188;82;21080;-56
2021/10/13 02:10:04;;;;;;;24.93;16.80;;;;;;;8.27;70.58;99139.23;1692396;82;21048;-57
2021/10/13 02:12:33;;;;;;;21.03;14.90;;;;;;;8.24;70.69;99144.77;1694362;82;21337;-56
2021/10/13 02:15:01;;;;;;;26.93;16.17;;;;;;;8.22;70.76;99145.30;1696501;82;21209;-58
2021/10/13 02:17:28;;;;;;;22.37;14.90;;;;;;;8.18;70.86;99146.84;1701342;82;20945;-56
2021/10/13 02:19:55;;;;;;;24.27;13.40;;;;;;;8.15;70.97;99150.56;1695801;82;21120;-55
2021/10/13 02:22:21;;;;;;;18.87;12.70;;;;;;;8.12;71.11;99161.42;1641802;82;21136;-56
2021/10/13 02:24:49;;;;;;;20.17;13.10;;;;;;;8.10;71.27;99165.98;1691356;82;22453;-56
2021/10/13 02:27:43;;;;;;;20.07;13.07;;;;;;;8.10;71.42;99164.64;1692857;82;21092;-56
2021/10/13 02:30:10;;;;;;;19.30;13.33;;;;;;;8.11;71.58;99163.70;1668323;82;21596;-58
2021/10/13 02:32:36;;;;;;;16.63;12.43;;;;;;;8.14;71.67;99168.06;1692035;82;21308;-58
2021/10/13 02:35:04;;;;;;;23.40;13.77;;;;;;;8.14;71.77;99164.05;1694585;82;21103;-56
2021/10/13 02:37:31;;;;;;;20.00;15.33;;;;;;;8.13;71.89;99154.26;1698559;82;21156;-58
2021/10/13 02:39:58;;;;;;;20.73;16.37;;;;;;;8.15;71.94;99150.56;1691784;82;21073;-57
2021/10/13 02:42:24;;;;;;;22.47;15.53;;;;;;;8.17;71.96;99155.36;1693863;82;21045;-56
2021/10/13 02:44:51;;;;;;;25.00;17.33;;;;;;;8.18;71.95;99166.95;1691294;82;21787;-56
2021/10/13 02:47:49;;;;;;;21.20;14.60;;;;;;;8.16;71.98;99164.38;1693049;82;21347;-58
2021/10/13 02:50:36;;;;;;;24.80;15.03;;;;;;;8.15;72.04;99165.78;1693748;82;21827;-57
2021/10/13 02:53:08;;;;;;;17.40;12.77;;;;;;;8.13;72.11;99166.32;1694803;82;21100;-56
2021/10/13 02:55:42;;;;;;;15.60;12.53;;;;;;;8.12;72.19;99166.79;1695297;82;21107;-56
2021/10/13 02:58:12;;;;;;;;;;;;;;;8.11;72.25;99161.03;1696678;82;21152;-56
2021/10/13 03:00:39;;;;;;;20.23;11.67;;;;;;;8.12;72.29;99159.22;1694334;82;20252;-57
2021/10/13 03:03:11;;;;;;;17.10;11.83;;;;;;;8.12;72.37;99167.26;1696028;82;21089;-57
2021/10/13 03:05:37;;;;;;;16.60;12.83;;;;;;;8.13;72.41;99168.53;1692297;82;21362;-57
2021/10/13 03:08:08;;;;;;;24.53;13.73;;;;;;;8.14;72.38;99172.95;1694833;82;21453;-58
2021/10/13 03:10:34;;;;;;;20.17;14.73;;;;;;;8.14;72.34;99167.59;1690602;82;21029;-55
2021/10/13 03:13:02;;;;;;;19.27;15.37;;;;;;;8.13;72.39;99166.32;1684922;83;21080;-56
2021/10/13 03:15:30;;;;;;;19.50;15.67;;;;;;;8.10;72.39;99171.34;1681471;83;21499;-58
2021/10/13 03:17:58;;;;;;;20.17;15.77;;;;;;;8.07;72.40;99171.52;1689619;83;22429;-57
2021/10/13 03:20:27;;;;;;;21.20;15.30;;;;;;;8.04;72.45;99175.66;1690432;82;21125;-55
2021/10/13 03:23:16;;;;;;;22.93;15.03;;;;;;;8.01;72.48;99178.48;1682389;83;21110;-57
2021/10/13 03:25:42;;;;;;;20.00;13.50;;;;;;;8.01;72.56;99179.81;1650781;84;21373;-55
2021/10/13 03:28:09;;;;;;;23.50;13.43;;;;;;;7.99;72.64;99176.36;1649994;84;21245;-57
2021/10/13 03:30:35;;;;;;;18.53;13.67;;;;;;;8.01;72.68;99174.92;1695648;82;21064;-58
2021/10/13 03:33:02;;;;;;;17.83;12.93;;;;;;;8.02;72.71;99176.67;1694471;82;21125;-57
2021/10/13 03:35:31;;;;;;;22.27;15.70;;;;;;;8.03;72.73;99186.45;1698646;82;21534;-57
2021/10/13 03:38:00;;;;;;;20.53;14.47;;;;;;;8.04;72.74;99184.17;1700231;82;21057;-56
2021/10/13 03:40:28;;;;;;;25.53;16.97;;;;;;;8.05;72.76;99182.77;1707182;82;21515;-56
2021/10/13 03:42:54;;;;;;;22.47;17.57;;;;;;;8.04;72.71;99181.02;1700048;82;21056;-57
2021/10/13 03:45:22;;;;;;;22.40;17.77;;;;;;;8.04;72.65;99184.17;1698785;82;21069;-56
2021/10/13 03:47:48;;;;;;;26.57;18.33;;;;;;;8.02;72.65;99181.56;1699235;82;21450;-58
2021/10/13 03:50:18;;;;;;;24.73;17.20;;;;;;;8.00;72.65;99178.08;1668958;84;21779;-57
2021/10/13 03:52:45;;;;;;;24.90;17.93;;;;;;;7.98;72.64;99173.28;1663738;84;21224;-58
2021/10/13 03:55:14;;;;;;;20.70;16.27;;;;;;;7.96;72.66;99181.86;1637234;85;21319;-57
2021/10/13 03:57:42;;;;;;;19.47;15.77;;;;;;;7.94;72.68;99176.56;1660019;84;21532;-56
2021/10/13 04:00:13;;;;;;;23.30;14.43;;;;;;;7.94;72.73;99179.70;1701640;82;22551;-57
2021/10/13 04:02:40;;;;;;;22.93;15.47;;;;;;;7.93;72.79;99184.67;1701294;82;20966;-56
2021/10/13 04:05:07;;;;;;;22.27;15.77;;;;;;;7.94;72.83;99178.37;1692730;82;21061;-57
2021/10/13 04:07:33;;;;;;;19.07;15.50;;;;;;;7.94;72.79;99172.54;1704632;82;20966;-58
2021/10/13 04:10:00;;;;;;;24.60;17.30;;;;;;;7.93;72.82;99172.14;1701323;82;20965;-57
2021/10/13 04:12:29;;;;;;;26.10;18.00;;;;;;;7.92;72.82;99173.55;1702635;82;20970;-56
2021/10/13 04:14:55;;;;;;;25.53;17.43;;;;;;;7.89;72.84;99169.69;1701411;82;21850;-56
2021/10/13 04:17:21;;;;;;;20.10;14.73;;;;;;;7.85;72.86;99172.97;1702504;82;21536;-56
2021/10/13 04:19:49;;;;;;;19.43;14.17;;;;;;;7.82;72.92;99167.77;1703559;82;21222;-58
2021/10/13 04:22:15;;;;;;;18.50;13.80;;;;;;;7.79;72.98;99165.22;1702015;82;21324;-57
2021/10/13 04:24:41;;;;;;;18.47;13.87;;;;;;;7.78;73.04;99167.97;1702247;82;21456;-57
2021/10/13 04:27:07;;;;;;;18.83;13.10;;;;;;;7.76;73.10;99168.50;1668812;84;20920;-56
2021/10/13 04:29:34;;;;;;;20.57;13.80;;;;;;;7.73;73.21;99174.02;1657858;84;21064;-56
2021/10/13 04:32:00;;;;;;;17.03;14.67;;;;;;;7.74;73.28;99177.10;1693939;82;20940;-57
2021/10/13 04:34:26;;;;;;;18.57;14.83;;;;;;;7.74;73.35;99179.78;1701372;82;20934;-55
2021/10/13 04:36:52;;;;;;;25.53;16.17;;;;;;;7.73;73.35;99178.91;1702016;82;20882;-57
2021/10/13 04:39:19;;;;;;;22.20;15.57;;;;;;;7.70;73.34;99182.19;1703275;82;21005;-57
2021/10/13 04:41:45;;;;;;;24.23;16.57;;;;;;;7.65;73.40;99186.42;1708012;82;22345;-57
2021/10/13 04:44:11;;;;;;;25.63;17.20;;;;;;;7.62;73.45;99191.04;1701603;82;20965;-56
2021/10/13 04:46:38;;;;;;;21.03;15.63;;;;;;;7.56;73.53;99183.69;1702840;82;21471;-57
2021/10/13 04:49:04;;;;;;;24.23;15.43;;;;;;;7.54;73.63;99182.02;1698257;81;20950;-56
2021/10/13 04:51:31;;;;;;;21.83;13.60;;;;;;;7.51;73.73;99187.49;1702508;82;21108;-56
2021/10/13 04:53:57;;;;;;;21.43;13.37;;;;;;;7.51;73.85;99192.85;1697539;82;22405;-58
2021/10/13 04:56:23;;;;;;;17.33;13.27;;;;;;;7.52;73.90;99194.13;1699418;82;21099;-57
2021/10/13 04:58:50;;;;;;;23.57;16.60;;;;;;;7.53;73.93;99199.89;1700269;82;21664;-57
2021/10/13 05:01:16;;;;;;;27.17;17.03;;;;;;;7.56;73.99;99209.14;1699115;82;21723;-57
2021/10/13 05:03:42;;;;;;;22.40;16.87;;;;;;;7.57;73.90;99214.86;1700566;82;21580;-55
2021/10/13 05:06:09;;;;;;;27.23;19.30;;;;;;;7.53;73.96;99210.59;1697317;82;21113;-55
2021/10/13 05:08:36;;;;;;;21.67;16.23;;;;;;;7.53;73.99;99207.92;1703720;82;22181;-58
2021/10/13 05:11:02;;;;;;;26.60;17.00;;;;;;;7.53;73.98;99207.05;1699071;82;21655;-57
2021/10/13 05:13:29;;;;;;;22.40;16.03;;;;;;;7.52;73.97;99214.68;1701673;82;20899;-54
2021/10/13 05:15:55;;;;;;;23.00;15.30;;;;;;;7.51;74.02;99220.50;1701179;82;21130;-57
2021/10/13 05:18:22;;;;;;;21.23;14.23;;;;;;;7.52;74.10;99217.36;1701277;82;21052;-58
2021/10/13 05:20:48;;;;;;;20.40;14.60;;;;;;;7.54;74.11;99215.02;1698525;82;21144;-57
2021/10/13 05:23:14;;;;;;;25.23;17.67;;;;;;;7.59;74.08;99216.14;1698654;82;21040;-57
2021/10/13 05:25:42;;;;;;;23.00;15.13;;;;;;;7.60;74.03;99225.92;1699687;82;21117;-56
2021/10/13 05:28:09;;;;;;;23.90;16.47;;;;;;;7.62;73.99;99228.07;1698611;82;21546;-56
2021/10/13 05:30:35;;;;;;;22.90;17.37;;;;;;;7.62;73.91;99225.86;1698774;82;21116;-56
2021/10/13 05:33:59;;;;;;;22.57;16.57;;;;;;;7.65;73.93;99212.34;1873164;74;22542;-56
2021/10/13 05:36:25;;;;;;;19.83;14.03;;;;;;;7.60;73.93;99224.11;1840889;77;21039;-57
2021/10/13 05:38:52;;;;;;;21.93;14.93;;;;;;;7.58;73.93;99220.62;1836764;76;21160;-55
2021/10/13 05:41:19;;;;;;;23.03;14.47;;;;;;;7.57;73.99;99223.40;1842928;77;20968;-56
2021/10/13 05:43:45;;;;;;;19.40;12.73;;;;;;;7.59;74.02;99238.91;1840264;76;21041;-57
2021/10/13 05:46:11;;;;;;;17.90;13.30;;;;;;;7.63;74.12;99233.83;1835633;77;21271;-55
2021/10/13 05:48:37;;;;;;;20.40;15.60;;;;;;;7.68;74.08;99235.83;1836008;76;21080;-55
2021/10/13 05:51:04;;;;;;;21.13;15.30;;;;;;;7.71;74.08;99242.39;1841531;76;21753;-54
2021/10/13 05:53:30;;;;;;;22.17;16.87;;;;;;;7.74;74.04;99242.73;1838980;77;21035;-55
2021/10/13 05:55:57;;;;;;;22.93;18.53;;;;;;;7.75;73.97;99236.41;1836261;76;21021;-55
2021/10/13 05:58:25;;;;;;;24.93;16.60;;;;;;;7.75;73.99;99239.96;1833174;75;21487;-55
2021/10/13 06:00:53;;;;;;;20.93;14.83;;;;;;;7.75;73.96;99241.77;1837470;76;22519;-55
2021/10/13 06:03:21;;;;;;;19.43;15.03;;;;;;;7.75;74.00;99246.66;1835398;77;22322;-57
2021/10/13 06:05:48;;;;;;;24.27;15.03;;;;;;;7.79;74.03;99253.64;1840080;77;21635;-56
2021/10/13 06:08:14;;;;;;;23.87;15.73;;;;;;;7.85;74.03;99255.16;1841116;77;21057;-57
2021/10/13 06:10:41;;;;;;;23.67;15.80;;;;;;;7.87;73.91;99253.29;1837626;77;21081;-54
2021/10/13 06:13:07;;;;;;;26.10;17.40;;;;;;;7.90;73.90;99254.50;1836739;76;21030;-54
2021/10/13 06:15:37;;;;;;;26.73;18.83;;;;;;;7.90;73.87;99253.16;1833735;77;21827;-54
2021/10/13 06:18:09;;;;;;;21.67;16.70;;;;;;;7.93;73.91;99253.00;1838751;77;20914;-54
2021/10/13 06:20:36;;;;;;;26.27;18.53;;;;;;;7.96;73.95;99251.06;1834309;76;21252;-57
2021/10/13 06:23:03;;;;;;;21.60;16.37;;;;;;;8.00;73.89;99249.09;1840615;77;21728;-53
2021/10/13 06:25:29;;;;;;;21.60;16.10;;;;;;;8.03;73.89;99248.97;1838173;75;21646;-56
2021/10/13 06:27:56;;;;;;;25.77;16.10;;;;;;;8.07;73.82;99248.38;1837467;77;21171;-53
2021/10/13 06:30:22;;;;;;;21.53;14.77;;;;;;;8.12;73.87;99253.91;1833168;76;21096;-55
2021/10/13 06:32:48;;;;;;;24.37;14.80;;;;;;;8.19;73.77;99250.00;1834051;75;21036;-55
2021/10/13 06:35:15;;;;;;;22.05;14.50;;;;;;;8.28;73.67;99251.38;1840523;76;21050;-54
2021/10/13 06:37:41;;;;;;;20.47;16.63;;;;;;;8.38;73.54;99262.59;1830202;75;21079;-55
2021/10/13 06:40:09;;;;;;;22.13;17.17;;;;;;;8.46;73.38;99264.44;1832794;76;22208;-56
2021/10/13 06:42:35;;;;;;;23.03;16.87;;;;;;;8.52;73.18;99269.50;1833986;75;21570;-56
2021/10/13 06:45:01;;;;;;;25.60;18.63;;;;;;;8.54;72.99;99272.52;1843654;75;21060;-56
2021/10/13 06:50:00;;;;;;;23.97;16.93;;;;;;;8.60;72.71;99261.95;1864671;75;22687;-55
2021/10/13 06:52:27;;;;;;;29.27;15.70;;;;;;;8.56;72.69;99267.95;1869207;75;21004;-57
2021/10/13 06:54:53;;;;;;;22.15;15.25;;;;;;;8.55;72.64;99264.87;1867993;75;21456;-58
2021/10/13 06:57:19;;;;;;;20.02;14.98;;;;;;;8.57;72.66;99260.31;1871340;75;21255;-55
2021/10/13 06:59:45;;;;;;;20.27;14.05;;;;;;;8.58;72.56;99266.55;1868642;75;21198;-56
2021/10/13 07:02:12;;;;;;;19.75;14.85;;;;;;;8.61;72.58;99260.55;1869618;75;21625;-55
2021/10/13 07:04:38;;;;;;;19.70;16.32;;;;;;;8.65;72.56;99272.02;1866955;75;21486;-54
2021/10/13 07:07:04;;;;;;;22.10;17.27;;;;;;;8.69;72.38;99278.95;1869168;75;21514;-56
2021/10/13 07:09:30;;;;;;;25.57;17.23;;;;;;;8.68;72.22;99275.87;1868481;75;21454;-56
2021/10/13 07:11:57;;;;;;;25.62;15.70;;;;;;;8.64;72.04;99271.14;1867768;75;22192;-55
2021/10/13 07:14:24;;;;;;;22.10;16.23;;;;;;;8.63;72.13;99271.20;1869504;75;22207;-56
2021/10/13 07:16:50;;;;;;;22.97;15.67;;;;;;;8.66;72.23;99269.26;1867728;75;21028;-55
2021/10/13 07:19:17;;;;;;;22.40;15.83;;;;;;;8.69;72.19;99257.48;1868453;75;21099;-56
2021/10/13 07:21:43;;;;;;;20.27;16.17;;;;;;;8.74;72.06;99255.47;1869873;75;22225;-56
2021/10/13 07:24:09;;;;;;;23.55;16.02;;;;;;;8.77;71.87;99260.67;1866635;75;21053;-57
2021/10/13 07:26:36;;;;;;;24.72;17.25;;;;;;;8.78;71.72;99257.52;1873557;75;21057;-57
2021/10/13 07:29:03;;;;;;;26.10;19.12;;;;;;;8.78;71.50;99254.83;1867793;75;20994;-55
2021/10/13 07:31:30;;;;;;;25.95;17.57;;;;;;;8.74;71.41;99263.52;1864873;75;21113;-56
2021/10/13 07:33:57;;;;;;;25.62;16.67;;;;;;;8.71;71.45;99277.07;1841355;75;21036;-57
2021/10/13 07:36:23;;;;;;;24.77;16.03;;;;;;;8.65;71.41;99272.02;1850412;75;21025;-56
2021/10/13 07:38:49;;;;;;;21.30;16.50;;;;;;;8.61;71.55;99271.27;1847436;75;21079;-55
2021/10/13 07:41:16;;;;;;;21.90;16.07;;;;;;;8.61;71.70;99275.30;1846136;75;21082;-56
2021/10/13 07:43:42;;;;;;;26.12;17.52;;;;;;;8.65;71.80;99270.67;1844477;75;21084;-55
2021/10/13 07:46:09;;;;;;;24.87;17.35;;;;;;;8.71;71.78;99273.05;1846408;75;21632;-55
2021/10/13 07:48:35;;;;;;;25.95;17.42;;;;;;;8.76;71.68;99271.50;1841632;75;21033;-57
2021/10/13 07:51:02;;;;;;;22.48;17.48;;;;;;;8.80;71.43;99263.21;1841550;75;21356;-55
2021/10/13 07:53:30;;;;;;;24.52;19.37;;;;;;;8.81;71.39;99266.30;1848662;75;21094;-56
2021/10/13 07:55:56;;;;;;;24.32;17.92;;;;;;;8.82;71.32;99268.52;1843749;75;21149;-55
2021/10/13 07:58:22;;;;;;;21.68;16.80;;;;;;;8.82;71.29;99268.04;1846521;75;21692;-56
2021/10/13 08:00:48;;;;;;;22.25;15.93;;;;;;;8.85;71.21;99271.02;1842261;75;21435;-57
2021/10/13 08:03:15;;;;;;;27.32;15.58;;;;;;;8.87;71.22;99271.36;1847572;75;21148;-56
2021/10/13 08:05:41;;;;;;;20.67;15.03;;;;;;;8.91;71.11;99278.80;1844737;75;21088;-54
2021/10/13 08:08:08;;;;;;;25.12;16.12;;;;;;;8.96;71.01;99272.25;1845883;75;22351;-55
2021/10/13 08:10:34;;;;;;;20.95;16.42;;;;;;;9.02;70.92;99274.63;1844560;75;21052;-56
2021/10/13 08:13:00;;;;;;;21.40;15.10;;;;;;;9.07;70.78;99276.63;1846726;75;21425;-57
2021/10/13 08:15:26;;;;;;;22.32;16.00;;;;;;;9.07;70.46;99273.94;1842550;75;21563;-58
2021/10/13 08:17:53;;;;;;;20.70;15.57;;;;;;;9.04;70.29;99268.72;1843726;75;20997;-56
2021/10/13 08:20:19;;;;;;;20.88;12.23;;;;;;;9.03;70.14;99272.34;1842096;75;21539;-55
2021/10/13 08:22:48;;;;;;;17.07;12.85;;;;;;;9.05;70.01;99273.61;1841602;75;21029;-56
2021/10/13 08:25:15;;;;;;;19.45;12.63;;;;;;;9.06;69.86;99276.22;1846100;75;21127;-56
2021/10/13 08:27:42;;;;;;;19.42;13.80;;;;;;;9.08;69.87;99269.44;1839611;75;21157;-56
2021/10/13 08:30:09;;;;;;;18.67;13.53;;;;;;;9.14;69.69;99275.84;1846279;75;21084;-55
2021/10/13 08:32:36;;;;;;;18.77;15.63;;;;;;;9.16;69.72;99266.38;1842984;75;21466;-56
2021/10/13 08:35:04;;;;;;;18.50;13.95;;;;;;;9.18;69.44;99261.33;1843991;75;20835;-55
2021/10/13 08:37:31;;;;;;;21.82;14.80;;;;;;;9.17;69.47;99264.09;1850426;75;20929;-56
2021/10/13 08:39:57;;;;;;;18.27;13.30;;;;;;;9.15;69.46;99263.28;1838959;75;21084;-55
2021/10/13 08:42:24;;;;;;;20.75;14.00;;;;;;;9.16;69.53;99259.66;1842740;75;21088;-57
2021/10/13 08:44:53;;;;;;;18.05;12.55;;;;;;;9.20;69.70;99262.57;1844667;75;21065;-57
2021/10/13 08:47:19;;;;;;;16.62;12.07;;;;;;;9.27;69.46;99261.34;1841844;75;22371;-57
2021/10/13 08:49:47;;;;;;;19.00;15.03;;;;;;;9.31;69.20;99261.56;1841898;75;21412;-57
2021/10/13 08:52:13;;;;;;;21.87;16.25;;;;;;;9.31;69.03;99266.94;1843794;75;21535;-54
2021/10/13 08:54:41;;;;;;;21.48;14.50;;;;;;;9.30;69.06;99261.16;1844739;75;21061;-57
2021/10/13 08:57:22;;;;;;;25.75;15.68;;;;;;;9.31;69.09;99265.59;1843263;75;21487;-57
2021/10/13 08:59:50;;;;;;;21.60;15.48;;;;;;;9.33;69.15;99267.73;1846418;75;21399;-57
2021/10/13 09:02:19;;;;;;;24.47;14.00;;;;;;;9.34;69.00;99270.34;1847673;75;20894;-57
2021/10/13 09:05:11;;;;;;;17.30;13.60;;;;;;;9.37;68.94;99267.95;1830225;75;21439;-55
2021/10/13 09:07:39;;;;;;;18.00;12.68;;;;;;;9.39;68.59;99272.31;1839263;75;21104;-56
2021/10/13 09:10:06;;;;;;;18.55;13.08;;;;;;;9.39;68.38;99272.78;1841846;75;21152;-56
2021/10/13 09:12:35;;;;;;;16.25;13.13;;;;;;;9.42;68.31;99264.11;1843576;75;21017;-56
2021/10/13 09:15:12;;;;;;;21.15;14.00;;;;;;;9.46;68.13;99273.73;1840705;75;21040;-56
2021/10/13 09:18:03;;;;;;;20.05;13.65;;;;;;;9.49;68.05;99268.69;1840282;75;21088;-55
2021/10/13 09:20:34;;;;;;;19.98;14.78;;;;;;;9.55;67.96;99272.39;1844033;75;21001;-57
2021/10/13 09:23:17;;;;;;;19.37;14.93;;;;;;;9.61;67.82;99275.26;1843736;75;21186;-57
2021/10/13 09:26:02;;;;;;;20.32;14.95;;;;;;;9.62;67.69;99280.53;1845444;75;21032;-56
2021/10/13 09:28:28;;;;;;;19.55;15.75;;;;;;;9.64;67.54;99277.77;1821825;75;21032;-57
2021/10/13 09:30:54;;;;;;;18.73;14.73;;;;;;;9.62;67.26;99279.66;1844180;75;21017;-55
2021/10/13 09:33:20;;;;;;;17.17;14.45;;;;;;;9.60;66.96;99277.55;1847953;75;21060;-56
2021/10/13 09:35:55;;;;;;;19.62;13.28;;;;;;;9.57;66.62;99275.88;1848815;75;21108;-56
2021/10/13 09:38:25;;;;;;;18.90;12.65;;;;;;;9.56;66.70;99271.45;1841605;75;24217;-56
2021/10/13 09:41:00;;;;;;;15.78;13.38;;;;;;;9.58;66.69;99274.93;1846581;75;20930;-57
2021/10/13 09:43:35;;;;;;;19.25;14.47;;;;;;;9.62;66.62;99279.66;1844901;75;21029;-56
2021/10/13 09:46:09;;;;;;;25.50;16.95;;;;;;;9.64;66.44;99274.61;1845148;75;21547;-57
2021/10/13 09:48:38;;;;;;;21.40;16.02;;;;;;;9.66;66.44;99283.47;1846586;75;21084;-57
2021/10/13 09:51:20;;;;;;;23.15;15.63;;;;;;;9.67;66.24;99279.83;1771702;78;20870;-55
2021/10/13 09:53:47;;;;;;;16.17;12.63;;;;;;;9.65;66.28;99276.34;1783407;78;20971;-54
2021/10/13 09:56:37;;;;;;;16.25;12.78;;;;;;;9.63;65.88;99280.92;1749315;78;20920;-56
2021/10/13 09:59:15;;;;;;;18.32;14.28;;;;;;;9.62;65.85;99284.55;1801597;77;20890;-57
2021/10/13 10:01:47;;;;;;;15.55;11.80;;;;;;;9.60;65.94;99282.45;1806141;77;21271;-56
2021/10/13 10:04:25;;;;;;;15.13;10.88;;;;;;;9.62;65.84;99279.66;1802433;77;20914;-56
2021/10/13 10:06:57;;;;;;;17.52;11.55;;;;;;;9.64;65.62;99277.77;1798067;77;21473;-55
2021/10/13 10:09:26;;;;;;;22.55;12.63;;;;;;;9.67;65.61;99267.73;1804455;77;21005;-54
2021/10/13 10:12:07;;;;;;;22.60;13.68;;;;;;;9.72;65.50;99272.86;1770898;78;21030;-55
2021/10/13 10:14:40;;;;;;;18.75;13.53;;;;;;;9.76;65.32;99273.98;1803873;77;21120;-56
2021/10/13 10:17:06;;;;;;;21.82;12.37;;;;;;;9.78;65.18;99272.05;1808188;77;21030;-57
2021/10/13 10:19:44;;;;;;;14.73;12.28;;;;;;;9.79;64.98;99276.95;1803120;77;21087;-57
2021/10/13 10:22:15;;;;;;;18.60;13.75;;;;;;;9.81;64.93;99280.44;1807747;77;21090;-55
2021/10/13 10:24:49;;;;;;;19.20;12.68;;;;;;;9.82;64.91;99275.46;1811590;77;21401;-57
2021/10/13 10:27:30;;;;;;;18.85;13.10;;;;;;;9.81;64.85;99271.91;1764827;78;21277;-56
2021/10/13 10:30:15;;;;;;;15.65;13.00;;;;;;;9.82;64.75;99280.84;1780334;78;20951;-56
2021/10/13 10:32:44;;;;;;;21.80;13.08;;;;;;;9.80;64.76;99272.85;1812614;77;20962;-57
2021/10/13 10:35:15;;;;;;;16.73;11.93;;;;;;;9.82;64.72;99272.30;1772595;78;21096;-56
2021/10/13 10:37:54;;;;;;;14.80;10.23;;;;;;;9.85;64.85;99271.28;1809452;77;21043;-55
2021/10/13 10:40:37;;;;;;;15.50;11.68;;;;;;;9.90;64.88;99269.20;1806258;77;21554;-56
2021/10/13 10:43:20;;;;;;;16.90;11.95;;;;;;;9.96;64.71;99268.87;1810541;77;21055;-57
2021/10/13 10:45:54;;;;;;;13.40;12.03;;;;;;;10.00;64.33;99273.15;1802477;77;21046;-57
2021/10/13 10:48:21;;;;;;;13.13;11.73;;;;;;;10.02;64.42;99267.70;1808640;77;21045;-58
2021/10/13 10:50:57;;;;;;;20.08;12.18;;;;;;;10.03;64.15;99265.41;1779616;78;21392;-58
2021/10/13 10:53:34;;;;;;;14.13;11.78;;;;;;;10.04;63.98;99271.14;1780060;78;21865;-58
2021/10/13 10:56:17;;;;;;;15.30;10.78;;;;;;;10.05;63.93;99268.86;1779150;78;20900;-57
2021/10/13 10:59:09;;;;;;;13.00;9.90;;;;;;;10.03;63.61;99275.69;1778918;78;21384;-57
2021/10/13 11:01:37;;;;;;;13.50;10.85;;;;;;;10.02;63.50;99272.60;1780550;78;22201;-58
2021/10/13 11:04:10;;;;;;;13.95;11.10;;;;;;;10.02;63.67;99271.73;1782496;78;20967;-56
2021/10/13 11:06:37;;;;;;;15.03;11.85;;;;;;;10.02;63.78;99273.94;1778932;78;21378;-58
2021/10/13 11:09:11;;;;;;;13.38;10.53;;;;;;;10.04;63.93;99276.05;1771794;78;21322;-56
2021/10/13 11:11:42;;;;;;;20.30;11.48;;;;;;;10.08;63.82;99270.05;1808948;77;21070;-57
2021/10/13 11:14:12;;;;;;;11.05;9.95;;;;;;;10.10;63.78;99270.84;1808688;77;22416;-57
2021/10/13 11:16:50;;;;;;;16.90;12.23;;;;;;;10.13;63.71;99268.84;1808957;77;21034;-56
2021/10/13 11:19:20;;;;;;;11.97;10.80;;;;;;;10.18;63.71;99263.26;1778464;78;21112;-58
2021/10/13 11:22:07;;;;;;;16.60;11.55;;;;;;;10.21;63.66;99260.38;1779613;78;21085;-58
2021/10/13 11:24:37;;;;;;;13.30;10.43;;;;;;;10.23;63.63;99265.20;1776007;78;21513;-58
2021/10/13 11:27:03;;;;;;;16.62;12.98;;;;;;;10.23;63.65;99268.77;1777934;78;21125;-57
2021/10/13 11:29:33;;;;;;;18.12;12.60;;;;;;;10.19;63.73;99260.49;1783231;78;20963;-56
2021/10/13 11:32:10;;;;;;;18.65;14.35;;;;;;;10.14;64.00;99263.85;1782529;78;21431;-55
2021/10/13 11:34:37;;;;;;;19.60;16.25;;;;;;;10.13;64.35;99269.31;1782275;78;20978;-57
2021/10/13 11:37:03;;;;;;;22.70;16.50;;;;;;;10.11;64.38;99263.17;1778118;78;21689;-57
2021/10/13 11:39:32;;;;;;;22.42;16.23;;;;;;;10.11;64.56;99262.70;1780256;78;21059;-57